Terminal Aerodrome Forecast
Issued by NWS

Home | Current Version | Previous Version | Text Only | Print | Product List | Glossary On
Versions: 1 2 3 4 5 6 7 8 9 10 11 12 13
317
FTUS46 KLOX 240536
TAFBUR
TAF
KBUR 240536Z 2406/2506 VRB03KT P6SM SKC
     FM242100 18008KT P6SM BKN250
     FM250400 VRB03KT P6SM BKN150=

USA.gov is the U.S. government's official web portal to all federal, state and local government web resources and services.